sensor_id;sensor_type;location;lat;lon;timestamp;pressure;altitude;pressure_sealevel;temperature;humidity
46574;BME280;32299;53.366;-1.544;2022-11-13T00:00:18;99561.76;;;15.08;47.77
46574;BME280;32299;53.366;-1.544;2022-11-13T00:02:45;99560.42;;;15.30;47.77
46574;BME280;32299;53.366;-1.544;2022-11-13T00:05:13;99561.26;;;15.53;47.86
46574;BME280;32299;53.366;-1.544;2022-11-13T00:07:40;99558.95;;;15.29;47.74
46574;BME280;32299;53.366;-1.544;2022-11-13T00:10:08;99560.22;;;15.25;47.97
46574;BME280;32299;53.366;-1.544;2022-11-13T00:12:35;99561.94;;;15.17;48.02
46574;BME280;32299;53.366;-1.544;2022-11-13T00:15:03;99564.13;;;15.13;48.31
46574;BME280;32299;53.366;-1.544;2022-11-13T00:17:31;99563.69;;;15.12;48.22
46574;BME280;32299;53.366;-1.544;2022-11-13T00:19:58;99565.69;;;15.37;48.46
46574;BME280;32299;53.366;-1.544;2022-11-13T00:22:25;99565.25;;;15.31;48.42
46574;BME280;32299;53.366;-1.544;2022-11-13T00:24:52;99563.77;;;15.12;48.20
46574;BME280;32299;53.366;-1.544;2022-11-13T00:27:19;99563.03;;;15.35;48.32
46574;BME280;32299;53.366;-1.544;2022-11-13T00:29:46;99559.38;;;14.88;48.07
46574;BME280;32299;53.366;-1.544;2022-11-13T00:32:14;99555.36;;;15.10;48.35
46574;BME280;32299;53.366;-1.544;2022-11-13T00:34:41;99555.62;;;15.20;48.08
46574;BME280;32299;53.366;-1.544;2022-11-13T00:37:08;99549.10;;;15.32;48.24
46574;BME280;32299;53.366;-1.544;2022-11-13T00:39:35;99545.73;;;15.17;48.09
46574;BME280;32299;53.366;-1.544;2022-11-13T00:42:02;99547.26;;;15.15;48.09
46574;BME280;32299;53.366;-1.544;2022-11-13T00:44:29;99546.76;;;15.07;48.14
46574;BME280;32299;53.366;-1.544;2022-11-13T00:46:56;99550.40;;;14.83;48.08
46574;BME280;32299;53.366;-1.544;2022-11-13T00:49:23;99548.42;;;15.36;48.06
46574;BME280;32299;53.366;-1.544;2022-11-13T00:51:50;99545.97;;;15.00;48.23
46574;BME280;32299;53.366;-1.544;2022-11-13T00:54:16;99545.89;;;15.05;48.16
46574;BME280;32299;53.366;-1.544;2022-11-13T00:56:44;99540.87;;;15.17;47.80
46574;BME280;32299;53.366;-1.544;2022-11-13T00:59:10;99535.20;;;15.26;48.36
46574;BME280;32299;53.366;-1.544;2022-11-13T01:01:38;99532.95;;;15.32;48.35
46574;BME280;32299;53.366;-1.544;2022-11-13T01:04:05;99531.91;;;14.95;48.59
46574;BME280;32299;53.366;-1.544;2022-11-13T01:06:32;99529.42;;;15.23;48.76
46574;BME280;32299;53.366;-1.544;2022-11-13T01:09:00;99530.71;;;14.67;48.93
46574;BME280;32299;53.366;-1.544;2022-11-13T01:11:29;99529.25;;;15.01;48.76
46574;BME280;32299;53.366;-1.544;2022-11-13T01:13:56;99532.96;;;15.13;48.40
46574;BME280;32299;53.366;-1.544;2022-11-13T01:16:25;99528.81;;;14.99;48.82
46574;BME280;32299;53.366;-1.544;2022-11-13T01:18:54;99531.62;;;14.99;48.73
46574;BME280;32299;53.366;-1.544;2022-11-13T01:21:22;99525.49;;;15.03;48.72
46574;BME280;32299;53.366;-1.544;2022-11-13T01:23:50;99522.25;;;15.05;48.63
46574;BME280;32299;53.366;-1.544;2022-11-13T01:26:20;99520.00;;;15.12;48.59
46574;BME280;32299;53.366;-1.544;2022-11-13T01:28:48;99522.52;;;15.09;48.55
46574;BME280;32299;53.366;-1.544;2022-11-13T01:31:17;99519.53;;;15.18;48.02
46574;BME280;32299;53.366;-1.544;2022-11-13T01:33:45;99524.01;;;15.09;48.44
46574;BME280;32299;53.366;-1.544;2022-11-13T01:36:14;99529.46;;;14.90;48.34
46574;BME280;32299;53.366;-1.544;2022-11-13T01:38:41;99530.22;;;15.11;48.30
46574;BME280;32299;53.366;-1.544;2022-11-13T01:41:15;99525.30;;;15.11;48.16
46574;BME280;32299;53.366;-1.544;2022-11-13T01:43:42;99523.82;;;15.36;48.06
46574;BME280;32299;53.366;-1.544;2022-11-13T01:46:20;99521.14;;;15.15;47.87
46574;BME280;32299;53.366;-1.544;2022-11-13T01:48:53;99521.83;;;15.12;47.73
46574;BME280;32299;53.366;-1.544;2022-11-13T01:51:29;99521.18;;;15.10;47.61
46574;BME280;32299;53.366;-1.544;2022-11-13T01:53:57;99518.04;;;15.07;47.49
46574;BME280;32299;53.366;-1.544;2022-11-13T01:56:26;99513.24;;;15.09;47.38
46574;BME280;32299;53.366;-1.544;2022-11-13T01:59:01;99508.16;;;15.06;47.25
46574;BME280;32299;53.366;-1.544;2022-11-13T02:01:30;99507.82;;;15.01;47.18
46574;BME280;32299;53.366;-1.544;2022-11-13T02:03:57;99505.44;;;15.09;46.59
46574;BME280;32299;53.366;-1.544;2022-11-13T02:06:27;99500.68;;;14.96;47.01
46574;BME280;32299;53.366;-1.544;2022-11-13T02:08:54;99496.19;;;14.95;47.09
46574;BME280;32299;53.366;-1.544;2022-11-13T02:11:22;99496.70;;;14.91;47.23
46574;BME280;32299;53.366;-1.544;2022-11-13T02:13:49;99492.99;;;14.58;47.47
46574;BME280;32299;53.366;-1.544;2022-11-13T02:16:17;99487.32;;;15.31;47.54
46574;BME280;32299;53.366;-1.544;2022-11-13T02:18:45;99488.40;;;15.03;47.71
46574;BME280;32299;53.366;-1.544;2022-11-13T02:21:23;99487.29;;;14.80;47.81
46574;BME280;32299;53.366;-1.544;2022-11-13T02:23:57;99490.30;;;14.75;47.98
46574;BME280;32299;53.366;-1.544;2022-11-13T02:26:26;99489.05;;;14.75;47.99
46574;BME280;32299;53.366;-1.544;2022-11-13T02:28:55;99485.42;;;14.72;48.10
46574;BME280;32299;53.366;-1.544;2022-11-13T02:31:22;99482.80;;;15.04;48.09
46574;BME280;32299;53.366;-1.544;2022-11-13T02:33:49;99486.58;;;14.76;48.16
46574;BME280;32299;53.366;-1.544;2022-11-13T02:36:17;99488.44;;;14.85;47.93
46574;BME280;32299;53.366;-1.544;2022-11-13T02:38:47;99487.81;;;15.04;48.21
46574;BME280;32299;53.366;-1.544;2022-11-13T02:41:15;99488.39;;;15.13;47.96
46574;BME280;32299;53.366;-1.544;2022-11-13T02:43:42;99489.68;;;15.12;48.22
46574;BME280;32299;53.366;-1.544;2022-11-13T02:46:09;99491.83;;;14.84;48.22
46574;BME280;32299;53.366;-1.544;2022-11-13T02:48:36;99498.30;;;15.10;48.33
46574;BME280;32299;53.366;-1.544;2022-11-13T02:51:04;99495.58;;;14.84;48.34
46574;BME280;32299;53.366;-1.544;2022-11-13T02:53:31;99492.31;;;15.10;48.35
46574;BME280;32299;53.366;-1.544;2022-11-13T02:55:58;99491.55;;;15.10;48.29
46574;BME280;32299;53.366;-1.544;2022-11-13T02:58:25;99496.24;;;14.81;48.42
46574;BME280;32299;53.366;-1.544;2022-11-13T03:00:52;99490.62;;;15.05;48.59
46574;BME280;32299;53.366;-1.544;2022-11-13T03:03:20;99486.25;;;15.10;48.59
46574;BME280;32299;53.366;-1.544;2022-11-13T03:05:48;99483.02;;;14.90;49.03
46574;BME280;32299;53.366;-1.544;2022-11-13T03:08:16;99476.53;;;14.96;48.94
46574;BME280;32299;53.366;-1.544;2022-11-13T03:10:43;99471.84;;;14.91;49.19
46574;BME280;32299;53.366;-1.544;2022-11-13T03:13:10;99465.66;;;14.93;49.15
46574;BME280;32299;53.366;-1.544;2022-11-13T03:15:37;99458.31;;;14.94;49.11
46574;BME280;32299;53.366;-1.544;2022-11-13T03:18:06;99455.95;;;14.70;49.04
46574;BME280;32299;53.366;-1.544;2022-11-13T03:20:36;99456.46;;;14.95;49.15
46574;BME280;32299;53.366;-1.544;2022-11-13T03:23:03;99453.98;;;15.02;48.94
46574;BME280;32299;53.366;-1.544;2022-11-13T03:25:31;99450.76;;;14.69;49.07
46574;BME280;32299;53.366;-1.544;2022-11-13T03:27:59;99445.76;;;15.00;48.97
46574;BME280;32299;53.366;-1.544;2022-11-13T03:30:27;99441.93;;;14.78;48.90
46574;BME280;32299;53.366;-1.544;2022-11-13T03:32:55;99439.08;;;15.08;48.82
46574;BME280;32299;53.366;-1.544;2022-11-13T03:35:23;99437.51;;;14.74;48.86
46574;BME280;32299;53.366;-1.544;2022-11-13T03:37:51;99431.66;;;14.65;49.08
46574;BME280;32299;53.366;-1.544;2022-11-13T03:40:18;99430.40;;;14.98;49.04
46574;BME280;32299;53.366;-1.544;2022-11-13T03:42:45;99429.78;;;14.68;49.01
46574;BME280;32299;53.366;-1.544;2022-11-13T03:45:12;99430.23;;;15.12;49.32
46574;BME280;32299;53.366;-1.544;2022-11-13T03:47:39;99429.50;;;14.92;49.37
46574;BME280;32299;53.366;-1.544;2022-11-13T03:50:07;99425.02;;;14.80;49.64
46574;BME280;32299;53.366;-1.544;2022-11-13T03:52:35;99425.24;;;14.64;49.45
46574;BME280;32299;53.366;-1.544;2022-11-13T03:55:02;99429.93;;;14.70;49.46
46574;BME280;32299;53.366;-1.544;2022-11-13T03:57:29;99429.97;;;14.95;49.40
46574;BME280;32299;53.366;-1.544;2022-11-13T03:59:56;99429.19;;;14.99;49.42
46574;BME280;32299;53.366;-1.544;2022-11-13T04:02:23;99421.83;;;14.96;49.26
46574;BME280;32299;53.366;-1.544;2022-11-13T04:04:51;99423.05;;;15.20;49.39
46574;BME280;32299;53.366;-1.544;2022-11-13T04:07:18;99417.96;;;15.00;49.41
46574;BME280;32299;53.366;-1.544;2022-11-13T04:09:45;99415.54;;;14.97;49.51
46574;BME280;32299;53.366;-1.544;2022-11-13T04:12:12;99410.40;;;14.73;49.17
46574;BME280;32299;53.366;-1.544;2022-11-13T04:14:40;99408.42;;;14.91;49.58
46574;BME280;32299;53.366;-1.544;2022-11-13T04:17:06;99406.84;;;14.67;49.45
46574;BME280;32299;53.366;-1.544;2022-11-13T04:19:34;99412.99;;;15.02;49.22
46574;BME280;32299;53.366;-1.544;2022-11-13T04:22:01;99413.20;;;14.71;49.46
46574;BME280;32299;53.366;-1.544;2022-11-13T04:24:28;99415.85;;;15.14;49.59
46574;BME280;32299;53.366;-1.544;2022-11-13T04:26:56;99417.56;;;14.91;49.45
46574;BME280;32299;53.366;-1.544;2022-11-13T04:29:23;99414.94;;;14.93;49.56
46574;BME280;32299;53.366;-1.544;2022-11-13T04:31:51;99414.63;;;14.90;49.69
46574;BME280;32299;53.366;-1.544;2022-11-13T04:34:18;99413.63;;;14.90;49.58
46574;BME280;32299;53.366;-1.544;2022-11-13T04:36:46;99411.33;;;14.95;49.44
46574;BME280;32299;53.366;-1.544;2022-11-13T04:39:12;99409.80;;;14.51;49.96
46574;BME280;32299;53.366;-1.544;2022-11-13T04:41:39;99412.12;;;14.54;50.00
46574;BME280;32299;53.366;-1.544;2022-11-13T04:44:07;99406.51;;;14.70;50.17
46574;BME280;32299;53.366;-1.544;2022-11-13T04:46:34;99403.89;;;14.85;49.70
46574;BME280;32299;53.366;-1.544;2022-11-13T04:49:01;99403.73;;;14.53;50.05
46574;BME280;32299;53.366;-1.544;2022-11-13T04:51:28;99399.89;;;14.91;49.72
46574;BME280;32299;53.366;-1.544;2022-11-13T04:53:56;99396.14;;;14.91;49.60
46574;BME280;32299;53.366;-1.544;2022-11-13T04:56:24;99396.22;;;14.93;49.44
46574;BME280;32299;53.366;-1.544;2022-11-13T04:58:51;99395.09;;;14.91;49.37
46574;BME280;32299;53.366;-1.544;2022-11-13T05:01:19;99395.49;;;15.00;49.23
46574;BME280;32299;53.366;-1.544;2022-11-13T05:03:46;99393.50;;;14.65;49.13
46574;BME280;32299;53.366;-1.544;2022-11-13T05:06:13;99393.35;;;14.97;49.04
46574;BME280;32299;53.366;-1.544;2022-11-13T05:08:40;99392.21;;;14.96;48.90
46574;BME280;32299;53.366;-1.544;2022-11-13T05:11:07;99387.08;;;14.67;48.86
46574;BME280;32299;53.366;-1.544;2022-11-13T05:13:35;99389.96;;;14.77;48.55
46574;BME280;32299;53.366;-1.544;2022-11-13T05:16:03;99388.15;;;14.73;48.53
46574;BME280;32299;53.366;-1.544;2022-11-13T05:18:31;99390.71;;;14.65;48.68
46574;BME280;32299;53.366;-1.544;2022-11-13T05:20:59;99384.13;;;14.69;48.60
46574;BME280;32299;53.366;-1.544;2022-11-13T05:23:26;99377.34;;;14.99;48.26
46574;BME280;32299;53.366;-1.544;2022-11-13T05:26:00;99373.09;;;14.93;48.47
46574;BME280;32299;53.366;-1.544;2022-11-13T05:28:27;99370.76;;;14.95;48.39
46574;BME280;32299;53.366;-1.544;2022-11-13T05:31:02;99368.35;;;14.96;48.31
46574;BME280;32299;53.366;-1.544;2022-11-13T05:33:29;99365.55;;;14.69;48.25
46574;BME280;32299;53.366;-1.544;2022-11-13T05:36:00;99364.10;;;14.98;48.17
46574;BME280;32299;53.366;-1.544;2022-11-13T05:38:28;99357.19;;;14.63;48.17
46574;BME280;32299;53.366;-1.544;2022-11-13T05:41:00;99351.67;;;14.67;47.99
46574;BME280;32299;53.366;-1.544;2022-11-13T05:43:27;99351.00;;;14.66;47.94
46574;BME280;32299;53.366;-1.544;2022-11-13T05:45:59;99350.42;;;14.92;47.87
46574;BME280;32299;53.366;-1.544;2022-11-13T05:48:26;99352.83;;;14.58;47.92
46574;BME280;32299;53.366;-1.544;2022-11-13T05:51:00;99352.81;;;14.83;47.87
46574;BME280;32299;53.366;-1.544;2022-11-13T05:53:29;99355.78;;;14.50;47.88
46574;BME280;32299;53.366;-1.544;2022-11-13T05:56:00;99361.11;;;14.45;47.88
46574;BME280;32299;53.366;-1.544;2022-11-13T05:58:27;99363.37;;;14.73;47.85
46574;BME280;32299;53.366;-1.544;2022-11-13T06:01:05;99362.42;;;14.90;47.87
46574;BME280;32299;53.366;-1.544;2022-11-13T06:03:34;99362.28;;;14.70;47.77
46574;BME280;32299;53.366;-1.544;2022-11-13T06:06:02;99363.17;;;14.86;47.82
46574;BME280;32299;53.366;-1.544;2022-11-13T06:08:29;99364.71;;;14.30;47.89
46574;BME280;32299;53.366;-1.544;2022-11-13T06:10:59;99366.29;;;14.34;47.82
46574;BME280;32299;53.366;-1.544;2022-11-13T06:13:27;99368.03;;;14.37;47.66
46574;BME280;32299;53.366;-1.544;2022-11-13T06:15:58;99371.90;;;14.49;47.86
46574;BME280;32299;53.366;-1.544;2022-11-13T06:18:27;99374.66;;;14.51;47.82
46574;BME280;32299;53.366;-1.544;2022-11-13T06:20:54;99373.08;;;14.54;47.68
46574;BME280;32299;53.366;-1.544;2022-11-13T06:23:21;99370.00;;;14.53;47.72
46574;BME280;32299;53.366;-1.544;2022-11-13T06:25:48;99370.22;;;14.45;47.82
46574;BME280;32299;53.366;-1.544;2022-11-13T06:28:16;99365.45;;;14.20;47.70
46574;BME280;32299;53.366;-1.544;2022-11-13T06:30:43;99367.37;;;14.39;47.83
46574;BME280;32299;53.366;-1.544;2022-11-13T06:33:10;99369.52;;;14.63;47.76
46574;BME280;32299;53.366;-1.544;2022-11-13T06:35:36;99366.60;;;14.35;47.82
46574;BME280;32299;53.366;-1.544;2022-11-13T06:38:03;99367.59;;;14.31;47.85
46574;BME280;32299;53.366;-1.544;2022-11-13T06:40:30;99363.29;;;14.55;47.77
46574;BME280;32299;53.366;-1.544;2022-11-13T06:42:57;99365.99;;;14.02;47.73
46574;BME280;32299;53.366;-1.544;2022-11-13T06:45:24;99367.24;;;14.47;47.80
46574;BME280;32299;53.366;-1.544;2022-11-13T06:47:53;99361.64;;;14.24;47.71
46574;BME280;32299;53.366;-1.544;2022-11-13T06:50:20;99358.86;;;14.51;47.68
46574;BME280;32299;53.366;-1.544;2022-11-13T06:52:47;99363.86;;;14.33;47.90
46574;BME280;32299;53.366;-1.544;2022-11-13T06:55:15;99365.38;;;14.37;47.81
46574;BME280;32299;53.366;-1.544;2022-11-13T06:57:42;99363.36;;;14.38;47.81
46574;BME280;32299;53.366;-1.544;2022-11-13T07:00:10;99364.93;;;14.31;47.92
46574;BME280;32299;53.366;-1.544;2022-11-13T07:02:37;99362.89;;;14.28;47.92
46574;BME280;32299;53.366;-1.544;2022-11-13T07:05:04;99363.40;;;14.11;47.77
46574;BME280;32299;53.366;-1.544;2022-11-13T07:07:33;99360.24;;;14.31;47.77
46574;BME280;32299;53.366;-1.544;2022-11-13T07:10:00;99355.80;;;14.02;47.77
46574;BME280;32299;53.366;-1.544;2022-11-13T07:12:28;99352.58;;;14.20;47.78
46574;BME280;32299;53.366;-1.544;2022-11-13T07:14:55;99354.17;;;14.18;47.75
46574;BME280;32299;53.366;-1.544;2022-11-13T07:17:23;99354.42;;;13.97;47.66
46574;BME280;32299;53.366;-1.544;2022-11-13T07:19:50;99354.78;;;14.18;47.66
46574;BME280;32299;53.366;-1.544;2022-11-13T07:22:22;99353.19;;;14.16;47.66
46574;BME280;32299;53.366;-1.544;2022-11-13T07:24:49;99351.51;;;14.13;47.66
46574;BME280;32299;53.366;-1.544;2022-11-13T07:27:17;99353.72;;;14.15;47.62
46574;BME280;32299;53.366;-1.544;2022-11-13T07:29:44;99355.68;;;14.09;47.62
46574;BME280;32299;53.366;-1.544;2022-11-13T07:32:11;99359.40;;;14.13;47.54
46574;BME280;32299;53.366;-1.544;2022-11-13T07:34:39;99361.66;;;14.11;47.57
46574;BME280;32299;53.366;-1.544;2022-11-13T07:37:06;99363.54;;;13.88;47.56
46574;BME280;32299;53.366;-1.544;2022-11-13T07:39:33;99370.61;;;14.09;47.49
46574;BME280;32299;53.366;-1.544;2022-11-13T07:42:00;99372.40;;;13.85;47.51
46574;BME280;32299;53.366;-1.544;2022-11-13T07:44:32;99373.45;;;14.06;47.49
46574;BME280;32299;53.366;-1.544;2022-11-13T07:46:59;99379.27;;;14.04;47.49
46574;BME280;32299;53.366;-1.544;2022-11-13T07:49:26;99387.56;;;14.05;47.38
46574;BME280;32299;53.366;-1.544;2022-11-13T07:51:53;99386.67;;;14.00;47.36
46574;BME280;32299;53.366;-1.544;2022-11-13T07:54:20;99392.39;;;13.95;47.37
46574;BME280;32299;53.366;-1.544;2022-11-13T07:56:47;99400.39;;;13.93;47.35
46574;BME280;32299;53.366;-1.544;2022-11-13T07:59:14;99400.73;;;13.89;47.35
46574;BME280;32299;53.366;-1.544;2022-11-13T08:01:42;99405.87;;;13.88;47.37
46574;BME280;32299;53.366;-1.544;2022-11-13T08:04:09;99403.14;;;13.84;47.36
46574;BME280;32299;53.366;-1.544;2022-11-13T08:06:37;99400.53;;;13.82;47.35
46574;BME280;32299;53.366;-1.544;2022-11-13T08:09:04;99396.18;;;13.77;47.44
46574;BME280;32299;53.366;-1.544;2022-11-13T08:11:31;99395.42;;;14.03;47.45
46574;BME280;32299;53.366;-1.544;2022-11-13T08:13:58;99395.74;;;13.72;47.55
46574;BME280;32299;53.366;-1.544;2022-11-13T08:16:26;99396.59;;;13.99;47.58
46574;BME280;32299;53.366;-1.544;2022-11-13T08:18:53;99401.32;;;13.70;47.57
46574;BME280;32299;53.366;-1.544;2022-11-13T08:21:20;99406.22;;;13.68;47.62
46574;BME280;32299;53.366;-1.544;2022-11-13T08:23:48;99405.18;;;13.62;47.47
46574;BME280;32299;53.366;-1.544;2022-11-13T08:26:15;99400.70;;;13.55;47.83
46574;BME280;32299;53.366;-1.544;2022-11-13T08:28:48;99396.85;;;13.57;47.76
46574;BME280;32299;53.366;-1.544;2022-11-13T08:31:16;99393.53;;;13.59;47.69
46574;BME280;32299;53.366;-1.544;2022-11-13T08:33:43;99386.64;;;13.84;47.77
46574;BME280;32299;53.366;-1.544;2022-11-13T08:36:11;99383.18;;;13.54;47.86
46574;BME280;32299;53.366;-1.544;2022-11-13T08:38:37;99378.24;;;13.49;47.84
46574;BME280;32299;53.366;-1.544;2022-11-13T08:41:05;99381.30;;;13.77;47.76
46574;BME280;32299;53.366;-1.544;2022-11-13T08:43:33;99377.78;;;13.53;47.76
46574;BME280;32299;53.366;-1.544;2022-11-13T08:46:00;99376.71;;;13.52;47.85
46574;BME280;32299;53.366;-1.544;2022-11-13T08:48:27;99378.83;;;13.52;47.90
46574;BME280;32299;53.366;-1.544;2022-11-13T08:50:55;99377.85;;;13.53;47.89
46574;BME280;32299;53.366;-1.544;2022-11-13T08:53:23;99378.36;;;13.56;47.82
46574;BME280;32299;53.366;-1.544;2022-11-13T08:55:51;99378.51;;;14.07;47.81
46574;BME280;32299;53.366;-1.544;2022-11-13T08:58:19;99381.13;;;13.55;47.86
46574;BME280;32299;53.366;-1.544;2022-11-13T09:00:46;99383.03;;;13.56;47.81
46574;BME280;32299;53.366;-1.544;2022-11-13T09:03:22;99383.54;;;13.55;47.77
46574;BME280;32299;53.366;-1.544;2022-11-13T09:05:49;99379.10;;;13.55;47.79
46574;BME280;32299;53.366;-1.544;2022-11-13T09:08:21;99380.54;;;13.55;47.76
46574;BME280;32299;53.366;-1.544;2022-11-13T09:10:48;99374.86;;;13.58;47.67
46574;BME280;32299;53.366;-1.544;2022-11-13T09:13:16;99378.11;;;13.54;47.75
46574;BME280;32299;53.366;-1.544;2022-11-13T09:15:43;99379.75;;;13.51;47.74
46574;BME280;32299;53.366;-1.544;2022-11-13T09:18:10;99379.54;;;13.75;47.80
46574;BME280;32299;53.366;-1.544;2022-11-13T09:20:37;99376.89;;;13.45;47.90
46574;BME280;32299;53.366;-1.544;2022-11-13T09:23:06;99375.21;;;13.78;47.86
46574;BME280;32299;53.366;-1.544;2022-11-13T09:25:35;99371.08;;;13.50;47.92
46574;BME280;32299;53.366;-1.544;2022-11-13T09:28:04;99363.89;;;13.50;47.91
46574;BME280;32299;53.366;-1.544;2022-11-13T09:30:32;99363.41;;;13.47;47.97
46574;BME280;32299;53.366;-1.544;2022-11-13T09:33:00;99363.74;;;13.51;47.90
46574;BME280;32299;53.366;-1.544;2022-11-13T09:35:29;99369.27;;;13.55;47.86
46574;BME280;32299;53.366;-1.544;2022-11-13T09:38:03;99367.84;;;13.51;47.95
46574;BME280;32299;53.366;-1.544;2022-11-13T09:40:34;99366.94;;;13.51;47.99
46574;BME280;32299;53.366;-1.544;2022-11-13T09:43:05;99369.37;;;13.54;48.03
46574;BME280;32299;53.366;-1.544;2022-11-13T09:45:39;99369.25;;;13.57;48.04
46574;BME280;32299;53.366;-1.544;2022-11-13T09:48:18;99369.04;;;13.51;48.16
46574;BME280;32299;53.366;-1.544;2022-11-13T09:50:49;99370.05;;;13.52;48.19
46574;BME280;32299;53.366;-1.544;2022-11-13T09:53:18;99368.91;;;13.63;48.03
46574;BME280;32299;53.366;-1.544;2022-11-13T09:55:54;99369.25;;;13.62;47.94
46574;BME280;32299;53.366;-1.544;2022-11-13T09:58:34;99366.75;;;13.33;48.20
46574;BME280;32299;53.366;-1.544;2022-11-13T10:01:15;99364.14;;;13.59;48.13
46574;BME280;32299;53.366;-1.544;2022-11-13T10:03:48;99358.67;;;13.62;48.15
46574;BME280;32299;53.366;-1.544;2022-11-13T10:06:24;99356.62;;;13.66;48.12
46574;BME280;32299;53.366;-1.544;2022-11-13T10:08:57;99356.40;;;13.70;48.09
46574;BME280;32299;53.366;-1.544;2022-11-13T10:11:35;99358.39;;;13.49;48.04
46574;BME280;32299;53.366;-1.544;2022-11-13T10:14:08;99358.53;;;13.69;48.08
46574;BME280;32299;53.366;-1.544;2022-11-13T10:16:44;99357.93;;;14.01;48.02
46574;BME280;32299;53.366;-1.544;2022-11-13T10:19:17;99358.03;;;13.65;48.27
46574;BME280;32299;53.366;-1.544;2022-11-13T10:21:49;99358.78;;;13.67;48.28
46574;BME280;32299;53.366;-1.544;2022-11-13T10:24:24;99357.62;;;13.69;48.31
46574;BME280;32299;53.366;-1.544;2022-11-13T10:26:55;99355.33;;;14.00;48.26
46574;BME280;32299;53.366;-1.544;2022-11-13T10:29:26;99354.14;;;13.96;48.35
46574;BME280;32299;53.366;-1.544;2022-11-13T10:31:54;99350.86;;;13.71;48.37
46574;BME280;32299;53.366;-1.544;2022-11-13T10:34:21;99348.48;;;13.74;48.43
46574;BME280;32299;53.366;-1.544;2022-11-13T10:37:01;99346.67;;;13.76;48.44
46574;BME280;32299;53.366;-1.544;2022-11-13T10:39:40;99347.45;;;13.85;48.32
46574;BME280;32299;53.366;-1.544;2022-11-13T10:42:20;99349.42;;;13.77;48.54
46574;BME280;32299;53.366;-1.544;2022-11-13T10:44:53;99348.09;;;13.81;48.49
46574;BME280;32299;53.366;-1.544;2022-11-13T10:47:22;99348.58;;;13.79;48.67
46574;BME280;32299;53.366;-1.544;2022-11-13T10:49:50;99349.99;;;13.84;48.67
46574;BME280;32299;53.366;-1.544;2022-11-13T10:52:21;99349.36;;;13.64;48.67
46574;BME280;32299;53.366;-1.544;2022-11-13T10:54:49;99350.33;;;13.91;48.65
46574;BME280;32299;53.366;-1.544;2022-11-13T10:57:23;99354.05;;;13.71;48.68
46574;BME280;32299;53.366;-1.544;2022-11-13T10:59:52;99352.00;;;13.95;48.68
46574;BME280;32299;53.366;-1.544;2022-11-13T11:02:20;99351.19;;;14.02;48.61
46574;BME280;32299;53.366;-1.544;2022-11-13T11:05:02;99345.57;;;14.03;48.63
46574;BME280;32299;53.366;-1.544;2022-11-13T11:07:34;99343.09;;;14.10;48.38
46574;BME280;32299;53.366;-1.544;2022-11-13T11:10:19;99334.83;;;13.89;48.38
46574;BME280;32299;53.366;-1.544;2022-11-13T11:12:52;99328.92;;;14.03;48.72
46574;BME280;32299;53.366;-1.544;2022-11-13T11:15:24;99323.06;;;14.07;48.83
46574;BME280;32299;53.366;-1.544;2022-11-13T11:17:58;99319.63;;;14.08;48.88
46574;BME280;32299;53.366;-1.544;2022-11-13T11:20:39;99309.99;;;14.12;48.80
46574;BME280;32299;53.366;-1.544;2022-11-13T11:23:18;99300.49;;;14.10;48.93
46574;BME280;32299;53.366;-1.544;2022-11-13T11:25:53;99296.37;;;14.18;48.84
46574;BME280;32299;53.366;-1.544;2022-11-13T11:28:30;99292.92;;;14.25;48.82
46574;BME280;32299;53.366;-1.544;2022-11-13T11:31:04;99290.95;;;14.29;48.79
46574;BME280;32299;53.366;-1.544;2022-11-13T11:33:38;99292.05;;;14.06;48.84
46574;BME280;32299;53.366;-1.544;2022-11-13T11:36:17;99286.16;;;14.32;48.73
46574;BME280;32299;53.366;-1.544;2022-11-13T11:38:53;99284.01;;;14.36;48.74
46574;BME280;32299;53.366;-1.544;2022-11-13T11:41:27;99280.78;;;14.40;48.50
46574;BME280;32299;53.366;-1.544;2022-11-13T11:44:02;99275.72;;;14.32;48.75
46574;BME280;32299;53.366;-1.544;2022-11-13T11:46:30;99272.15;;;14.28;48.84
46574;BME280;32299;53.366;-1.544;2022-11-13T11:48:59;99267.80;;;14.36;48.68
46574;BME280;32299;53.366;-1.544;2022-11-13T11:51:30;99270.62;;;14.30;48.84
46574;BME280;32299;53.366;-1.544;2022-11-13T11:54:09;99269.50;;;14.17;48.62
46574;BME280;32299;53.366;-1.544;2022-11-13T11:56:43;99268.78;;;14.12;48.78
46574;BME280;32299;53.366;-1.544;2022-11-13T11:59:22;99267.34;;;14.35;48.86
46574;BME280;32299;53.366;-1.544;2022-11-13T12:02:14;99266.58;;;14.35;48.83
46574;BME280;32299;53.366;-1.544;2022-11-13T12:05:00;99267.76;;;14.15;48.89
46574;BME280;32299;53.366;-1.544;2022-11-13T12:07:38;99264.34;;;14.33;48.95
46574;BME280;32299;53.366;-1.544;2022-11-13T12:10:17;99257.58;;;14.07;49.00
46574;BME280;32299;53.366;-1.544;2022-11-13T12:12:59;99251.54;;;14.13;48.89
46574;BME280;32299;53.366;-1.544;2022-11-13T12:15:35;99246.72;;;14.37;48.89
46574;BME280;32299;53.366;-1.544;2022-11-13T12:18:13;99240.30;;;14.45;48.85
46574;BME280;32299;53.366;-1.544;2022-11-13T12:20:48;99236.30;;;14.46;48.85
46574;BME280;32299;53.366;-1.544;2022-11-13T12:23:28;99234.63;;;14.29;48.81
46574;BME280;32299;53.366;-1.544;2022-11-13T12:26:02;99235.26;;;14.55;48.82
46574;BME280;32299;53.366;-1.544;2022-11-13T12:28:37;99231.56;;;14.56;48.78
46574;BME280;32299;53.366;-1.544;2022-11-13T12:31:13;99230.78;;;14.57;48.82
46574;BME280;32299;53.366;-1.544;2022-11-13T12:33:48;99226.26;;;14.40;48.78
46574;BME280;32299;53.366;-1.544;2022-11-13T12:36:19;99222.40;;;14.65;48.72
46574;BME280;32299;53.366;-1.544;2022-11-13T12:38:51;99223.41;;;14.73;48.46
46574;BME280;32299;53.366;-1.544;2022-11-13T12:41:27;99223.20;;;14.60;48.80
46574;BME280;32299;53.366;-1.544;2022-11-13T12:44:16;99216.82;;;14.38;48.78
46574;BME280;32299;53.366;-1.544;2022-11-13T12:46:56;99214.85;;;14.64;48.77
46574;BME280;32299;53.366;-1.544;2022-11-13T12:49:35;99216.44;;;14.68;48.65
46574;BME280;32299;53.366;-1.544;2022-11-13T12:52:15;99215.95;;;14.69;48.66
46574;BME280;32299;53.366;-1.544;2022-11-13T12:54:43;99214.84;;;14.47;48.60
46574;BME280;32299;53.366;-1.544;2022-11-13T12:57:21;99215.97;;;14.29;48.42
46574;BME280;32299;53.366;-1.544;2022-11-13T12:59:51;99207.11;;;14.73;48.52
46574;BME280;32299;53.366;-1.544;2022-11-13T13:02:31;99204.93;;;14.54;48.53